Latest Weather Observations for Point Avoid

IDS60801

Issued at 8:01 pm CDT Friday 16 November 2018 (issued every 10 minutes, with the page automatically refreshed every 10 minutes)

About weather observations | Map of weather stations | Latest weather observations for SA | Other Formats
Station Details ID: 018230 Name: POINT AVOID Lat: -34.67 Lon: 135.34 Height: 35.0 m
Data from the previous 72 hours. | See also: Recent months at Point Avoid
Date/Time
CDT
Temp
°C
App
Temp
°C
Dew
Point
°C
Rel
Hum
%
Delta-T
°C
Wind Press
QNH
hPa
Press
MSL
hPa
Rain since
9am
mm
Dir  Spd
km/h
Gust
km/h
Spd
kts
Gust
kts
16/08:00pm 15.4 11.7 11.4 77 2.1 SSE 22 30 12 16 1023.0 1022.9 0.0
16/07:30pm 16.1 12.1 11.7 75 2.4 SSE 24 32 13 17 1022.7 1022.6 0.0
16/07:00pm 16.6 12.5 11.5 72 2.8 SSE 24 30 13 16 1022.5 1022.4 0.0
16/06:30pm 17.4 13.4 11.7 69 3.1 SSE 24 32 13 17 1022.4 1022.3 0.0
16/06:00pm 17.5 13.0 11.5 68 3.3 SSE 26 32 14 17 1022.4 1022.3 0.0
16/05:30pm 18.3 14.4 12.1 67 3.4 SSE 24 32 13 17 1022.3 1022.2 0.0
16/05:00pm 18.4 14.4 11.7 65 3.7 SSE 24 32 13 17 1022.3 1022.2 0.0
16/04:30pm 18.5 14.5 11.8 65 3.7 SSE 24 30 13 16 1022.4 1022.3 0.0
16/04:00pm 18.5 14.4 11.6 64 3.8 SSE 24 30 13 16 1022.3 1022.2 0.0
16/03:30pm 19.0 15.4 12.0 64 3.9 SSE 22 28 12 15 1022.4 1022.3 0.0
16/03:00pm 19.6 16.6 12.4 63 4.0 SSE 20 26 11 14 1022.4 1022.3 0.0
16/02:30pm 18.9 15.6 11.7 63 4.0 SSE 20 24 11 13 1022.5 1022.4 0.0
16/02:00pm 18.5 15.5 12.0 66 3.6 SSE 19 22 10 12 1022.8 1022.7 0.0
16/01:30pm 19.1 16.1 12.4 65 3.7 SSE 20 26 11 14 1023.1 1023.0 0.0
16/01:00pm 18.8 15.7 12.1 65 3.7 SSE 20 24 11 13 1023.2 1023.1 0.0
16/12:30pm 19.3 16.6 12.8 66 3.6 SSE 19 24 10 13 1023.3 1023.2 0.0
16/12:00pm 18.5 16.1 12.5 68 3.3 SE 17 20 9 11 1023.4 1023.3 0.0
16/11:30am 18.1 15.6 12.3 69 3.2 SSE 17 22 9 12 1023.6 1023.5 0.0
16/11:00am 18.3 16.4 13.0 71 3.0 SSE 15 20 8 11 1023.7 1023.6 0.0
16/10:30am 17.7 15.8 13.0 74 2.6 SSE 15 20 8 11 1023.3 1023.2 0.0
16/10:00am 17.3 16.2 13.2 77 2.3 S 11 15 6 8 1023.2 1023.1 0.0
16/09:30am 16.8 15.9 12.5 76 2.4 S 9 13 5 7 1022.9 1022.8 0.0
16/09:00am 16.5 16.3 13.0 80 1.9 ESE 6 9 3 5 1022.6 1022.5 0.0
16/08:30am 15.7 15.5 13.0 84 1.5 SE 6 9 3 5 1022.3 1022.2 0.0
16/08:00am 14.2 13.9 13.4 95 0.4 SE 7 11 4 6 1022.2 1022.1 0.0
16/07:30am 12.9 12.7 12.9 100 0.0 ESE 6 6 3 3 1022.0 1021.9 0.0
16/07:00am 10.9 10.1 10.9 100 0.0 ESE 6 7 3 4 1021.8 1021.7 0.0
16/06:30am 9.8 9.0 9.8 100 0.0 E 4 6 2 3 1021.6 1021.5 0.0
16/06:00am 9.5 8.3 9.5 100 0.0 ENE 6 7 3 4 1021.1 1021.0 0.0
16/05:30am 10.2 9.0 10.2 100 0.0 ENE 7 9 4 5 1020.8 1020.7 0.0
16/05:00am 10.4 8.9 10.4 100 0.0 ENE 9 13 5 7 1020.6 1020.5 0.0
16/04:30am 10.2 8.6 10.2 100 0.0 ENE 9 11 5 6 1020.8 1020.7 0.0
16/04:00am 10.7 9.2 10.7 100 0.0 ESE 9 11 5 6 1020.7 1020.6 0.0
16/03:30am 10.6 9.1 10.6 100 0.0 ESE 9 13 5 7 1020.7 1020.6 0.0
16/03:00am 11.2 9.8 11.0 99 0.1 ESE 9 11 5 6 1020.6 1020.5 0.0
16/02:30am 11.3 9.8 10.7 96 0.3 SE 9 11 5 6 1021.1 1021.0 0.0
16/02:00am 12.4 10.7 11.1 92 0.7 SE 11 13 6 7 1021.4 1021.3 0.0
16/01:30am 13.0 10.6 11.4 90 0.8 SE 15 19 8 10 1021.6 1021.5 0.0
16/01:00am 13.2 10.8 11.3 88 1.0 SE 15 19 8 10 1022.0 1021.9 0.0
16/12:30am 13.4 10.6 11.3 87 1.1 SE 17 20 9 11 1022.4 1022.3 0.0
16/12:00am 13.8 10.4 11.3 85 1.3 SE 20 24 11 13 1022.4 1022.3 0.0
 
Date/Time
CDT
Temp
°C
App
Temp
°C
Dew
Point
°C
Rel
Hum
%
Delta-T
°C
Wind Press
QNH
hPa
Press
MSL
hPa
Rain since
9am
mm
Dir  Spd
km/h
Gust
km/h
Spd
kts
Gust
kts
15/11:30pm 13.8 10.3 11.0 83 1.5 SE 20 26 11 14 1022.6 1022.5 0.0
15/11:00pm 13.7 10.4 10.9 83 1.5 SE 19 24 10 13 1023.0 1022.9 0.0
15/10:30pm 13.9 10.5 10.7 81 1.7 SE 19 24 10 13 1023.3 1023.2 0.0
15/10:00pm 14.1 10.4 10.3 78 2.0 SE 20 28 11 15 1023.3 1023.2 0.0
15/09:30pm 14.2 10.0 9.6 74 2.4 SE 22 30 12 16 1023.0 1022.9 0.0
15/09:00pm 14.4 9.8 9.6 73 2.5 SE 24 32 13 17 1022.8 1022.7 0.0
15/08:30pm 14.7 9.7 9.7 72 2.6 SE 26 33 14 18 1022.7 1022.6 0.0
15/08:00pm 14.8 9.3 9.2 69 2.9 SE 28 33 15 18 1022.6 1022.5 0.0
15/07:30pm 15.4 9.8 8.9 65 3.3 SE 28 35 15 19 1022.7 1022.6 0.0
15/07:00pm 16.0 10.3 8.2 60 3.9 SSE 28 35 15 19 1022.6 1022.5 0.0
15/06:30pm 16.7 11.0 8.4 58 4.2 SSE 28 33 15 18 1022.7 1022.6 0.0
15/06:00pm 17.3 11.6 8.2 55 4.6 SSE 28 33 15 18 1022.7 1022.6 0.0
15/05:30pm 17.6 11.7 9.0 57 4.5 SSE 30 37 16 20 1022.7 1022.6 0.0
15/05:00pm 18.1 12.2 8.9 55 4.8 SSE 30 35 16 19 1022.7 1022.6 0.0
15/04:30pm 18.2 12.5 9.8 58 4.4 SSE 30 37 16 20 1022.7 1022.6 0.0
15/04:00pm 18.4 12.5 9.2 55 4.8 S 30 37 16 20 1022.8 1022.7 0.0
15/03:30pm 18.6 12.9 9.7 56 4.7 S 30 35 16 19 1023.0 1022.9 0.0
15/03:00pm 18.6 13.3 9.7 56 4.7 SSE 28 33 15 18 1023.3 1023.2 0.0
15/02:30pm 18.9 14.0 9.9 56 4.8 SSE 26 33 14 18 1023.6 1023.5 0.0
15/02:00pm 18.8 13.7 9.3 54 5.0 SSE 26 33 14 18 1024.0 1023.9 0.0
15/01:30pm 18.8 14.0 9.0 53 5.1 SSE 24 32 13 17 1024.3 1024.2 0.0
15/01:00pm 19.2 14.4 8.8 51 5.4 S 24 30 13 16 1024.5 1024.4 0.0
15/12:30pm 18.8 13.8 8.2 50 5.4 S 24 32 13 17 1024.8 1024.7 0.0
15/12:00pm 18.9 13.9 8.0 49 5.6 SSE 24 28 13 15 1025.0 1024.9 0.0
15/11:30am 18.5 13.5 8.2 51 5.3 SSE 24 32 13 17 1025.1 1025.0 0.0
15/11:00am 18.2 13.6 9.5 57 4.6 SSE 24 30 13 16 1025.1 1025.0 0.0
15/10:30am 17.5 13.4 10.1 62 3.9 SSE 22 28 12 15 1025.2 1025.1 0.0
15/10:00am 17.1 13.4 10.0 63 3.8 SSE 20 26 11 14 1025.3 1025.2 0.0
15/09:30am 17.3 13.7 10.4 64 3.7 SE 20 26 11 14 1025.5 1025.4 0.0
15/09:00am 16.7 13.5 9.9 64 3.6 SE 17 20 9 11 1025.3 1025.2 0.2
15/08:30am 16.2 13.0 9.8 66 3.3 ESE 17 20 9 11 1025.0 1024.9 0.2
15/08:00am 15.4 12.3 10.2 71 2.7 ESE 17 22 9 12 1024.7 1024.6 0.2
15/07:30am 14.8 11.6 9.8 72 2.6 ESE 17 22 9 12 1024.5 1024.4 0.2
15/07:00am 13.9 10.2 9.3 74 2.3 SE 19 24 10 13 1024.2 1024.1 0.2
15/06:30am 12.7 10.5 9.5 81 1.6 E 11 15 6 8 1023.9 1023.8 0.2
15/06:00am 12.3 9.6 8.8 79 1.7 ESE 13 17 7 9 1023.4 1023.3 0.2
15/05:30am 13.8 10.4 9.0 73 2.4 SE 17 22 9 12 1023.1 1023.0 0.2
15/05:00am 13.6 9.8 9.1 74 2.3 SSE 19 26 10 14 1023.0 1022.9 0.2
15/04:30am 13.2 9.7 8.9 75 2.2 SE 17 24 9 13 1022.8 1022.7 0.2
15/04:00am 13.6 9.7 9.3 75 2.2 SSE 20 26 11 14 1022.6 1022.5 0.2
15/03:30am 13.7 9.8 9.4 75 2.2 SE 20 26 11 14 1022.4 1022.3 0.2
15/03:00am 13.5 9.5 9.0 74 2.3 SSE 20 28 11 15 1022.2 1022.1 0.2
15/02:30am 13.5 9.7 9.2 75 2.2 SSE 19 28 10 15 1022.4 1022.3 0.2
15/02:00am 13.3 9.2 8.6 73 2.4 SSE 20 26 11 14 1022.5 1022.4 0.2
15/01:30am 13.4 9.5 8.5 72 2.4 SSE 19 24 10 13 1023.0 1022.9 0.2
15/01:00am 13.6 9.9 9.3 75 2.2 SSE 19 28 10 15 1023.1 1023.0 0.2
15/12:30am 13.7 10.0 9.6 76 2.1 SSE 19 26 10 14 1023.1 1023.0 0.2
15/12:00am 13.8 10.1 9.5 75 2.2 SSE 19 26 10 14 1023.3 1023.2 0.2
 
Date/Time
CDT
Temp
°C
App
Temp
°C
Dew
Point
°C
Rel
Hum
%
Delta-T
°C
Wind Press
QNH
hPa
Press
MSL
hPa
Rain since
9am
mm
Dir  Spd
km/h
Gust
km/h
Spd
kts
Gust
kts
14/11:30pm 14.0 10.8 9.8 76 2.2 SSE 17 22 9 12 1023.1 1023.0 0.2
14/11:00pm 13.7 10.7 9.2 74 2.3 SSE 15 22 8 12 1023.2 1023.1 0.2
14/10:30pm 14.1 10.2 9.5 74 2.4 S 20 26 11 14 1023.0 1022.9 0.2
14/10:00pm 14.4 10.4 9.0 70 2.7 S 20 26 11 14 1023.0 1022.9 0.2
14/09:30pm 14.4 10.5 8.8 69 2.8 SSE 19 26 10 14 1022.7 1022.6 0.2
14/09:00pm 14.6 10.5 8.5 67 3.1 SSE 20 26 11 14 1022.3 1022.2 0.2
14/08:30pm 14.7 10.7 8.9 68 2.9 SSE 20 28 11 15 1022.2 1022.1 0.2
14/08:00pm 15.2 12.0 9.8 70 2.8 SSE 17 22 9 12 1021.9 1021.8 0.2
14/07:30pm 15.5 12.2 9.6 68 3.1 S 17 22 9 12 1021.6 1021.5 0.2
14/07:00pm 16.1 12.5 10.0 67 3.2 S 19 26 10 14 1021.4 1021.3 0.2
14/06:30pm 17.0 12.7 9.4 61 4.0 S 22 32 12 17 1021.2 1021.1 0.2
14/06:00pm 16.7 12.7 8.9 60 4.0 S 20 24 11 13 1021.1 1021.0 0.2
14/05:30pm 17.3 13.4 9.5 60 4.1 SSW 20 30 11 16 1020.9 1020.8 0.2
14/05:00pm 17.4 13.4 9.1 58 4.3 S 20 28 11 15 1020.8 1020.7 0.2
14/04:30pm 18.0 13.9 10.1 60 4.2 SSW 22 32 12 17 1020.6 1020.5 0.2
14/04:00pm 18.1 13.6 10.2 60 4.2 SSW 24 30 13 16 1020.6 1020.5 0.2
14/03:30pm 19.0 15.3 11.6 62 4.1 S 22 28 12 15 1020.5 1020.4 0.2
14/03:00pm 18.9 15.3 11.7 63 4.0 SSW 22 30 12 16 1020.4 1020.3 0.2
14/02:30pm 19.1 15.4 11.4 61 4.2 SSW 22 30 12 16 1020.1 1020.0 0.2
14/02:00pm 18.7 15.7 12.7 68 3.4 SSW 20 32 11 17 1019.9 1019.8 0.2
14/01:30pm 18.9 15.7 13.1 69 3.3 SSW 22 28 12 15 1019.9 1019.8 0.2
14/01:00pm 19.0 16.3 13.4 70 3.2 SSW 20 26 11 14 1019.7 1019.6 0.2
14/12:30pm 18.0 15.2 14.3 79 2.1 SSW 22 28 12 15 1019.6 1019.5 0.2
14/12:00pm 18.8 16.5 14.7 77 2.4 SW 20 30 11 16 1019.4 1019.3 0.0
14/11:30am 17.8 16.2 15.1 84 1.6 SW 17 22 9 12 1019.5 1019.4 0.0
14/11:00am 16.0 15.5 16.0 100 0.0 SW 13 24 7 13 1019.4 1019.3 0.0
14/10:30am 17.2 16.1 15.2 88 1.2 W 15 19 8 10 1019.0 1018.9 0.0
14/10:00am 16.9 15.4 15.4 91 0.9 W 17 22 9 12 1019.0 1018.9 0.0
14/09:30am 16.0 15.2 16.0 100 0.0 W 15 17 8 9 1018.7 1018.6 0.0
14/09:00am 14.8 12.6 14.8 100 0.0 WSW 20 28 11 15 1018.6 1018.5 0.2
14/08:30am 15.9 14.7 13.9 88 1.1 W 13 19 7 10 1018.1 1018.0 0.2
14/08:00am 16.0 15.4 12.4 79 2.0 WNW 7 11 4 6 1017.6 1017.5 0.2
14/07:30am 15.4 15.2 13.1 86 1.3 W 6 7 3 4 1017.4 1017.3 0.2
14/07:00am 13.7 14.0 13.4 98 0.2 W 4 6 2 3 1017.1 1017.0 0.2
14/06:30am 12.5 12.0 12.2 98 0.2 W 6 6 3 3 1016.9 1016.8 0.2
14/06:00am 11.5 11.9 11.2 98 0.2 CALM 0 6 0 3 1016.6 1016.5 0.2
14/05:30am 12.7 13.5 12.4 98 0.2 CALM 0 0 0 0 1016.3 1016.2 0.2
14/05:00am 13.8 14.2 13.8 100 0.0 S 4 6 2 3 1016.1 1016.0 0.2
14/04:30am 13.8 13.7 13.8 100 0.0 S 7 9 4 5 1015.9 1015.8 0.2
14/04:00am 13.8 13.3 13.8 100 0.0 S 9 15 5 8 1015.8 1015.7 0.2
14/03:30am 14.0 12.2 13.4 96 0.3 SW 15 24 8 13 1015.8 1015.7 0.2
14/03:00am 14.0 13.2 12.9 93 0.6 SW 9 17 5 9 1015.8 1015.7 0.2
14/02:30am 14.9 13.5 13.3 90 0.9 WSW 13 19 7 10 1015.8 1015.7 0.2
14/02:00am 14.8 13.2 12.7 87 1.2 SW 13 19 7 10 1015.8 1015.7 0.2
14/01:30am 14.8 13.6 11.6 81 1.7 WSW 9 15 5 8 1015.8 1015.7 0.2
14/01:00am 14.8 13.4 12.3 85 1.4 SW 11 15 6 8 1016.0 1015.9 0.2
14/12:30am 14.8 13.1 12.3 85 1.4 SW 13 17 7 9 1016.2 1016.1 0.2
14/12:00am 14.9 12.7 13.3 90 0.9 SW 17 20 9 11 1016.3 1016.2 0.2
 
Date/Time
CDT
Temp
°C
App
Temp
°C
Dew
Point
°C
Rel
Hum
%
Delta-T
°C
Wind Press
QNH
hPa
Press
MSL
hPa
Rain since
9am
mm
Dir  Spd
km/h
Gust
km/h
Spd
kts
Gust
kts
13/11:30pm 14.9 13.5 13.3 90 0.9 WSW 13 17 7 9 1016.3 1016.2 0.2
13/11:00pm 15.1 13.8 13.6 91 0.8 SW 13 17 7 9 1016.2 1016.1 0.2
13/10:30pm 15.2 14.4 13.9 92 0.7 SW 11 17 6 9 1016.1 1016.0 0.2
13/10:00pm 15.3 13.8 13.0 86 1.3 SW 13 19 7 10 1015.9 1015.8 0.2
13/09:30pm 15.2 13.3 13.1 87 1.2 SW 15 19 8 10 1015.6 1015.5 0.2
13/09:00pm 15.0 13.1 12.9 87 1.2 SW 15 19 8 10 1015.3 1015.2 0.2
13/08:30pm 15.2 13.3 13.1 87 1.2 SW 15 20 8 11 1015.3 1015.2 0.2

Other Formats:

Comma delimited format used in spreadsheet applications
http://www.bom.gov.au/fwo/IDS60801/IDS60801.95649.axf

JavaScript Object Notation format (JSON) in row-major order
http://www.bom.gov.au/fwo/IDS60801/IDS60801.95649.json